Time;durP1;ratioP1;P1;durP2;ratioP2;P2;SDS_P1;SDS_P2;PMS_P1;PMS_P2;Temp;Humidity;BMP_temperature;BMP_pressure;BME280_temperature;BME280_humidity;BME280_pressure;Samples;Min_cycle;Max_cycle;Signal;HPM_P1;HPM_P2
2023/10/14 00:05:02;;;;;;;4.85;3.80;;;16.70;97.80;;;17.58;53.47;97273.50;10364330;23;20712;-65
2023/10/14 00:10:06;;;;;;;3.90;3.50;;;16.90;95.10;;;17.90;52.12;97284.50;10356633;28;20629;-65
2023/10/14 00:15:10;;;;;;;6.82;3.65;;;17.30;94.10;;;18.17;51.04;97259.16;10356887;28;20713;-65
2023/10/14 00:20:15;;;;;;;4.35;3.60;;;17.50;93.80;;;18.24;51.58;97260.13;10355993;28;20226;-64
2023/10/14 00:25:23;;;;;;;3.80;3.40;;;17.60;93.90;;;18.35;52.18;97257.72;10357291;28;20230;-66
2023/10/14 00:30:31;;;;;;;5.72;3.85;;;17.60;94.30;;;18.39;51.83;97259.50;10354834;28;20726;-65
2023/10/14 00:35:39;;;;;;;4.10;3.70;;;17.60;93.90;;;18.46;51.13;97263.94;10356831;28;20234;-65
2023/10/14 00:40:45;;;;;;;3.80;3.40;;;17.70;93.40;;;18.57;50.89;97258.91;10356363;28;20631;-65
2023/10/14 00:45:49;;;;;;;4.50;3.88;;;17.90;93.10;;;18.74;50.08;97249.72;10359191;28;20228;-66
2023/10/14 00:50:58;;;;;;;4.45;4.05;;;17.90;92.70;;;18.84;49.67;97241.25;10355996;28;20249;-67
2023/10/14 00:56:02;;;;;;;4.10;3.55;;;18.20;92.20;;;19.00;48.74;97236.28;10356296;28;21031;-66
2023/10/14 01:01:07;;;;;;;4.80;3.70;;;18.40;91.60;;;19.13;48.96;97223.53;10352830;28;20812;-64
2023/10/14 01:06:23;;;;;;;4.43;4.03;;;18.40;92.10;;;19.34;51.06;97211.69;10353653;28;20226;-63
2023/10/14 01:11:26;;;;;;;7.38;4.57;;;18.60;93.30;;;19.48;52.79;97214.44;10352845;28;20229;-64
2023/10/14 01:16:36;;;;;;;5.10;4.60;;;18.80;94.40;;;19.62;52.72;97225.84;10353745;28;20222;-65
2023/10/14 01:21:43;;;;;;;6.05;5.00;;;18.90;94.70;;;19.68;53.15;97215.56;10354012;28;20230;-65
2023/10/14 01:26:51;;;;;;;5.10;4.55;;;19.00;95.00;;;19.86;55.02;97221.78;10354098;28;20910;-66
2023/10/14 01:32:23;;;;;;;5.50;5.10;;;19.10;96.50;;;20.06;58.14;97220.28;10353067;28;20328;-64
2023/10/14 01:37:33;;;;;;;9.57;5.60;;;19.30;98.40;;;20.19;59.16;97211.75;10354981;28;20226;-66
2023/10/14 01:42:38;;;;;;;8.40;6.50;;;19.60;99.50;;;20.35;60.50;97204.97;10356781;28;20234;-65
2023/10/14 01:47:44;;;;;;;6.40;5.70;;;19.70;99.90;;;20.48;60.28;97214.56;10353922;28;20284;-66
2023/10/14 01:52:49;;;;;;;6.03;5.47;;;19.70;99.90;;;20.49;60.74;97210.25;10356696;28;20237;-65
2023/10/14 01:57:58;;;;;;;7.97;6.35;;;19.70;99.90;;;20.69;61.25;97223.44;10356951;28;20258;-66
2023/10/14 02:03:06;;;;;;;7.50;6.10;;;19.90;99.90;;;20.63;62.83;97219.06;10350386;28;20589;-65
2023/10/14 02:08:14;;;;;;;7.38;6.68;;;20.00;99.90;;;20.65;63.44;97221.66;10352103;28;20246;-65
2023/10/14 02:13:22;;;;;;;10.73;6.85;;;20.00;99.90;;;20.81;63.61;97213.09;10362329;28;20237;-65
2023/10/14 02:18:25;;;;;;;9.63;7.18;;;20.10;99.90;;;20.84;63.66;97217.47;10361330;28;20230;-64
2023/10/14 02:23:30;;;;;;;8.25;7.07;;;20.30;99.90;;;20.97;63.76;97214.06;10362775;28;20230;-65
2023/10/14 02:28:40;;;;;;;8.38;6.70;;;20.30;99.90;;;20.87;64.08;97205.34;10361564;28;20230;-65
2023/10/14 02:33:45;;;;;;;7.38;6.45;;;20.30;99.90;;;20.95;63.65;97200.19;10361465;28;20319;-65
2023/10/14 02:38:53;;;;;;;7.28;6.50;;;20.30;99.90;;;21.01;63.47;97192.44;10360603;28;20305;-64
2023/10/14 02:44:19;;;;;;;8.80;6.90;;;20.20;99.90;;;20.87;64.26;97194.09;10361503;28;20226;-65
2023/10/14 02:49:24;;;;;;;8.70;6.82;;;20.20;99.90;;;20.89;63.96;97194.97;10360071;28;20863;-65
2023/10/14 02:54:33;;;;;;;9.00;7.70;;;20.10;99.90;;;21.01;63.31;97187.25;10358656;28;20234;-65
2023/10/14 02:59:39;;;;;;;8.18;6.93;;;20.30;99.90;;;21.09;63.17;97189.88;10360903;28;20233;-66
2023/10/14 03:04:55;;;;;;;7.57;6.82;;;20.30;99.90;;;20.93;63.90;97175.94;10358571;28;20230;-65
2023/10/14 03:10:10;;;;;;;8.18;7.05;;;20.10;99.90;;;21.01;63.76;97174.25;10359253;28;20701;-65
2023/10/14 03:15:19;;;;;;;7.95;6.70;;;20.20;99.90;;;20.83;64.48;97175.03;10361889;28;20280;-65
2023/10/14 03:20:36;;;;;;;7.78;7.07;;;20.10;99.90;;;21.05;63.54;97170.78;10358781;28;20226;-67
2023/10/14 03:25:41;;;;;;;6.80;6.20;;;20.20;99.90;;;21.09;63.27;97162.16;10360085;28;20288;-65
2023/10/14 03:30:55;;;;;;;6.78;6.20;;;20.20;99.90;;;21.13;62.92;97171.69;10358990;28;20311;-65
2023/10/14 03:36:03;;;;;;;7.53;6.40;;;20.20;99.90;;;21.07;63.30;97165.63;10358604;28;20684;-64
2023/10/14 03:41:16;;;;;;;7.70;7.00;;;20.20;99.90;;;21.05;63.38;97155.19;10359042;28;20230;-65
2023/10/14 03:46:29;;;;;;;8.27;7.30;;;20.30;99.90;;;21.17;63.03;97163.91;10360256;28;20234;-65
2023/10/14 03:51:35;;;;;;;7.63;6.97;;;20.40;99.90;;;21.18;63.29;97170.88;10359534;28;20249;-65
2023/10/14 03:56:44;;;;;;;7.55;6.68;;;20.40;99.90;;;21.06;63.55;97159.56;10357473;28;20221;-65
2023/10/14 04:01:54;;;;;;;7.75;6.72;;;20.20;99.90;;;20.99;64.23;97149.97;10357541;28;20694;-64
2023/10/14 04:07:15;;;;;;;7.95;7.10;;;20.10;99.90;;;20.91;64.88;97154.25;10353029;28;20590;-65
2023/10/14 04:12:36;;;;;;;8.13;6.82;;;20.10;99.90;;;21.11;64.25;97139.63;10357731;28;20230;-65
2023/10/14 04:17:46;;;;;;;7.68;6.90;;;20.20;99.90;;;21.10;64.48;97130.09;10356637;28;20923;-65
2023/10/14 04:22:53;;;;;;;7.93;7.13;;;20.50;99.90;;;21.02;65.13;97125.72;10354041;28;20339;-65
2023/10/14 04:33:25;;;;;;;8.27;7.57;;;20.40;99.90;;;20.98;65.91;97132.66;10352107;28;20307;-65
2023/10/14 04:38:37;;;;;;;7.82;7.13;;;20.20;99.90;;;20.99;65.95;97138.72;10355109;28;20230;-65
2023/10/14 04:44:02;;;;;;;8.70;7.22;;;20.40;99.90;;;21.01;66.30;97129.22;10361978;28;20267;-64
2023/10/14 04:49:09;;;;;;;8.10;7.28;;;20.30;99.90;;;21.04;66.21;97137.88;10324974;28;20238;-65
2023/10/14 04:54:15;;;;;;;7.95;7.00;;;20.30;99.90;;;20.91;66.81;97146.47;10323636;28;20223;-65
2023/10/14 04:59:24;;;;;;;10.23;7.55;;;20.20;99.90;;;20.95;66.49;97156.03;10354807;28;20230;-65
2023/10/14 05:04:37;;;;;;;8.20;7.18;;;20.40;99.90;;;20.91;66.24;97162.91;10353540;28;20230;-65
2023/10/14 05:09:40;;;;;;;9.95;6.72;;;20.30;99.90;;;20.66;69.73;97229.47;10354572;28;20222;-65
2023/10/14 05:14:43;;;;;;;7.93;6.18;;;20.20;99.90;;;19.71;82.26;97240.66;10346837;28;20582;-65
2023/10/14 05:19:54;;;;;;;6.93;6.22;;;19.00;99.90;;;19.20;85.99;97239.16;10342109;28;20222;-64
2023/10/14 05:25:03;;;;;;;9.82;7.47;;;18.40;99.90;;;18.65;89.23;97234.03;10341678;28;20234;-65
2023/10/14 05:30:08;;;;;;;6.97;6.28;;;17.90;99.90;;;18.37;92.01;97249.16;10344379;28;20262;-66
2023/10/14 05:35:13;;;;;;;8.93;7.15;;;17.60;99.90;;;18.31;93.82;97251.59;10349520;28;20256;-65
2023/10/14 05:40:21;;;;;;;7.88;6.95;;;17.50;99.90;;;18.21;94.35;97267.84;10350934;28;20226;-65
2023/10/14 05:45:28;;;;;;;10.00;7.00;;;17.40;99.90;;;18.13;95.45;97272.00;10355021;28;20234;-65
2023/10/14 05:50:33;;;;;;;8.02;7.30;;;17.40;99.90;;;18.07;95.90;97270.16;10352542;28;21005;-65
2023/10/14 05:55:38;;;;;;;7.57;6.82;;;17.30;99.90;;;18.11;96.46;97286.59;10353496;28;20249;-65
2023/10/14 06:00:42;;;;;;;7.82;7.05;;;17.40;99.90;;;18.20;97.63;97284.22;10351666;28;20779;-65
2023/10/14 06:05:46;;;;;;;8.57;6.82;;;17.40;99.90;;;18.29;97.91;97294.72;10352757;28;20219;-65
2023/10/14 06:10:49;;;;;;;7.78;6.97;;;17.30;99.90;;;18.31;97.62;97305.94;10352074;28;20277;-64
2023/10/14 06:15:52;;;;;;;8.85;7.05;;;17.30;99.90;;;18.29;98.22;97302.47;10353508;28;20230;-65
2023/10/14 06:20:57;;;;;;;8.15;7.35;;;17.40;99.90;;;18.23;99.16;97328.25;10354441;28;20542;-64
2023/10/14 06:26:01;;;;;;;8.93;7.30;;;17.30;99.90;;;18.19;99.29;97331.59;10352287;28;20226;-64
2023/10/14 06:31:04;;;;;;;8.18;7.38;;;17.30;99.90;;;18.18;99.58;97335.03;10354969;28;20772;-64
2023/10/14 06:36:13;;;;;;;8.18;7.38;;;17.30;99.90;;;18.33;98.30;97334.44;10346120;28;20666;-65
2023/10/14 06:41:17;;;;;;;7.22;6.53;;;17.30;99.90;;;18.24;98.70;97345.50;10347989;28;20241;-65
2023/10/14 06:46:20;;;;;;;8.65;7.75;;;17.30;99.90;;;18.29;98.72;97354.22;10352482;28;21614;-65
2023/10/14 06:51:26;;;;;;;8.23;7.43;;;17.40;99.90;;;18.39;98.51;97350.06;10353415;28;20222;-65
2023/10/14 06:56:29;;;;;;;8.13;7.00;;;17.40;99.90;;;18.54;97.38;97358.13;10352471;28;20223;-65
2023/10/14 07:01:33;;;;;;;9.57;7.38;;;17.50;99.90;;;18.58;96.64;97357.31;10358589;28;20245;-65
2023/10/14 07:06:38;;;;;;;7.40;6.70;;;17.60;99.90;;;18.82;95.72;97358.59;10362243;28;20313;-66
2023/10/14 07:11:41;;;;;;;7.00;6.10;;;17.80;99.90;;;19.14;91.66;97364.28;10361790;28;20230;-66
2023/10/14 07:16:45;;;;;;;6.72;5.85;;;18.00;99.90;;;19.20;88.98;97359.22;10354233;28;20230;-66
2023/10/14 07:21:49;;;;;;;6.57;5.93;;;18.30;99.90;;;19.11;89.27;97348.72;10357186;28;20250;-66
2023/10/14 07:26:56;;;;;;;9.30;5.82;;;18.10;99.90;;;19.07;88.82;97357.28;10359609;28;20210;-66
2023/10/14 07:32:01;;;;;;;6.55;5.45;;;18.00;99.90;;;19.09;88.54;97356.47;10355356;28;20248;-65
2023/10/14 07:37:06;;;;;;;7.45;5.78;;;18.10;99.90;;;19.43;87.21;97364.75;10358052;28;22536;-65
2023/10/14 07:42:13;;;;;;;10.80;6.00;;;18.40;99.90;;;19.59;85.85;97368.41;10358489;28;20230;-65
2023/10/14 07:47:16;;;;;;;9.05;8.15;;;18.60;99.90;;;19.74;83.34;97383.31;10354091;28;20230;-65
2023/10/14 07:52:21;;;;;;;10.55;6.60;;;18.70;99.90;;;19.94;80.37;97381.84;10356245;28;20292;-65
2023/10/14 07:57:24;;;;;;;6.85;4.78;;;19.00;99.90;;;20.02;79.94;97379.38;10359591;28;20226;-65
2023/10/14 08:02:27;;;;;;;6.32;5.25;;;19.00;99.90;;;20.06;79.69;97391.53;10350264;28;20234;-65
2023/10/14 08:07:34;;;;;;;6.53;4.80;;;19.00;99.90;;;19.98;79.16;97385.38;10360051;28;20647;-65
2023/10/14 08:12:37;;;;;;;7.05;4.90;;;19.00;99.90;;;20.14;77.90;97391.59;10365945;28;20296;-65
2023/10/14 08:17:42;;;;;;;7.15;3.97;;;19.10;99.90;;;20.60;75.28;97382.66;10364434;28;20237;-65
2023/10/14 08:22:48;;;;;;;6.05;4.03;;;19.70;99.90;;;21.01;72.57;97374.34;10363885;28;20485;-65
2023/10/14 08:27:52;;;;;;;5.60;4.30;;;20.10;99.90;;;20.99;72.28;97376.03;10362757;28;20235;-65
2023/10/14 08:32:55;;;;;;;4.50;3.85;;;20.00;99.90;;;21.07;70.64;97370.91;10361199;28;20706;-65
2023/10/14 08:37:59;;;;;;;6.20;4.78;;;20.10;99.90;;;20.85;71.41;97369.88;10363014;28;20319;-65
2023/10/14 08:43:05;;;;;;;6.88;5.10;;;19.90;99.90;;;20.92;71.69;97369.06;10359304;28;20238;-65
2023/10/14 08:48:11;;;;;;;7.00;5.15;;;19.90;99.90;;;;;;10360493;28;20248;-66
2023/10/14 08:53:16;;;;;;;7.20;5.32;;;20.00;99.90;;;21.09;72.59;97377.88;10362982;28;20240;-65
2023/10/14 08:58:22;;;;;;;8.65;5.55;;;20.10;99.90;;;20.91;74.55;97388.97;10361863;28;20242;-65
2023/10/14 09:03:26;;;;;;;7.70;6.00;;;19.70;99.90;;;20.55;77.27;97407.69;10360863;28;20321;-65
2023/10/14 09:08:33;;;;;;;8.30;5.47;;;19.40;99.90;;;20.64;76.76;97406.91;10360905;28;20249;-65
2023/10/14 09:13:37;;;;;;;8.40;6.00;;;19.50;99.90;;;20.51;77.86;97416.25;10363371;28;20242;-65
2023/10/14 09:18:57;;;;;;;7.47;5.53;;;19.60;99.90;;;20.53;78.72;97401.59;10361098;28;20261;-65
2023/10/14 09:24:07;;;;;;;7.22;5.35;;;19.60;99.90;;;21.29;74.76;97405.72;10361010;28;20238;-65
2023/10/14 09:29:12;;;;;;;6.00;5.15;;;20.80;99.90;;;21.66;73.25;97398.19;10360548;28;20232;-65
2023/10/14 09:34:24;;;;;;;7.75;5.13;;;21.10;99.90;;;21.70;71.77;97397.38;10354588;28;20617;-65
2023/10/14 09:39:29;;;;;;;5.47;4.70;;;21.00;99.90;;;21.38;72.39;97403.25;10360417;28;20747;-65
2023/10/14 09:44:34;;;;;;;5.18;4.68;;;20.70;99.90;;;21.47;72.07;97454.44;10359130;28;20233;-65
2023/10/14 09:49:39;;;;;;;6.47;2.20;;;20.90;99.90;;;20.56;78.42;97476.06;10357612;28;20234;-65
2023/10/14 09:54:44;;;;;;;2.00;1.02;;;19.90;99.90;;;19.24;85.88;97510.44;10355283;28;20234;-65
2023/10/14 09:59:49;;;;;;;2.63;1.20;;;18.30;99.90;;;18.46;93.33;97533.97;10358144;28;20281;-63
2023/10/14 10:04:54;;;;;;;2.88;1.40;;;17.50;99.90;;;18.04;98.84;97513.22;10361199;28;20234;-63
2023/10/14 10:10:18;;;;;;;1.80;1.25;;;17.30;99.90;;;17.58;99.71;97531.97;10356332;28;20316;-63
2023/10/14 10:15:22;;;;;;;2.05;1.27;;;16.80;99.90;;;17.10;100.00;97523.88;10360932;28;20294;-63
2023/10/14 10:20:29;;;;;;;1.30;1.20;;;16.50;99.90;;;16.91;100.00;97526.78;10360462;28;20226;-64
2023/10/14 10:25:49;;;;;;;1.40;1.30;;;16.40;99.90;;;16.87;100.00;97519.81;10354632;28;20256;-64
2023/10/14 10:30:54;;;;;;;2.42;1.40;;;16.20;99.90;;;16.67;100.00;97514.94;10359552;28;20226;-63
2023/10/14 10:35:57;;;;;;;1.23;1.13;;;16.10;99.90;;;16.65;100.00;97503.72;10363836;28;20253;-64
2023/10/14 10:41:24;;;;;;;4.93;1.33;;;16.00;99.90;;;16.66;100.00;97502.03;10359813;28;20214;-64
2023/10/14 10:46:44;;;;;;;1.33;1.23;;;16.00;99.90;;;16.63;100.00;97515.72;10363590;28;20230;-64
2023/10/14 10:52:12;;;;;;;1.73;1.58;;;15.90;99.90;;;16.71;100.00;97509.88;10366576;28;20623;-64
2023/10/14 10:57:19;;;;;;;1.90;1.80;;;15.90;99.90;;;16.66;100.00;97526.13;10368564;28;20222;-65
2023/10/14 11:02:22;;;;;;;2.65;2.00;;;15.80;99.90;;;16.54;100.00;97520.63;10360894;28;22432;-65
2023/10/14 11:07:27;;;;;;;2.25;2.05;;;15.70;99.90;;;16.40;100.00;97522.81;10366721;28;20314;-64
2023/10/14 11:12:36;;;;;;;1.90;1.80;;;15.70;99.90;;;16.49;100.00;97511.88;10363421;28;20612;-64
2023/10/14 11:17:39;;;;;;;2.50;2.30;;;15.80;99.90;;;16.64;100.00;97506.25;10356615;28;20234;-64
2023/10/14 11:22:43;;;;;;;2.70;2.50;;;15.90;99.90;;;16.59;100.00;97518.16;10356883;28;20240;-64
2023/10/14 11:27:48;;;;;;;2.78;2.50;;;15.90;99.90;;;16.61;100.00;97514.78;10357708;28;20238;-64
2023/10/14 11:32:52;;;;;;;2.88;2.65;;;15.90;99.90;;;16.65;100.00;97519.22;10356667;28;20226;-65
2023/10/14 11:38:00;;;;;;;3.75;3.45;;;15.80;99.90;;;16.50;100.00;97513.59;10352553;28;20301;-64
2023/10/14 11:43:06;;;;;;;4.63;3.50;;;15.80;99.90;;;16.27;100.00;97510.38;10349485;28;20226;-64
2023/10/14 11:48:22;;;;;;;4.85;3.78;;;15.70;99.90;;;16.37;100.00;97516.69;10351374;28;20222;-65
2023/10/14 11:53:28;;;;;;;4.43;4.03;;;15.60;99.90;;;16.23;100.00;97503.38;10342720;28;20891;-65
2023/10/14 11:58:35;;;;;;;5.13;4.63;;;15.60;99.90;;;16.28;100.00;97511.25;10350666;28;20230;-66
2023/10/14 12:03:39;;;;;;;5.85;4.65;;;15.60;99.90;;;16.07;100.00;97535.56;10350024;28;20244;-66
2023/10/14 12:08:42;;;;;;;3.60;3.00;;;15.50;99.90;;;16.08;100.00;97528.72;10351073;28;20312;-66
2023/10/14 12:13:48;;;;;;;2.70;2.50;;;15.30;99.90;;;15.99;100.00;97537.03;10348665;28;20343;-66
2023/10/14 12:18:58;;;;;;;2.80;2.60;;;15.20;99.90;;;15.74;100.00;97543.16;10350067;28;20776;-66
2023/10/14 12:24:04;;;;;;;2.83;2.67;;;15.10;99.90;;;15.72;100.00;97537.94;10348784;28;20301;-66
2023/10/14 12:29:09;;;;;;;2.70;2.47;;;15.10;99.90;;;15.87;100.00;97539.25;10351032;28;20222;-66
2023/10/14 12:34:14;;;;;;;2.97;2.67;;;15.20;99.90;;;15.84;100.00;97544.31;10344410;28;20341;-66
2023/10/14 12:39:21;;;;;;;3.33;2.75;;;15.20;99.90;;;15.86;100.00;97550.41;10352747;28;20308;-66
2023/10/14 12:44:27;;;;;;;2.30;2.10;;;15.20;99.90;;;15.57;100.00;97565.78;10351945;28;20234;-66
2023/10/14 12:49:30;;;;;;;2.45;2.28;;;14.90;99.90;;;15.43;100.00;97570.47;10354906;28;20227;-66
2023/10/14 12:54:34;;;;;;;2.42;2.20;;;14.80;99.90;;;15.24;100.00;97573.22;10344094;28;20237;-67
2023/10/14 12:59:41;;;;;;;2.30;2.10;;;14.60;99.90;;;15.23;100.00;97594.66;10345732;28;20244;-66
2023/10/14 13:04:45;;;;;;;2.00;1.90;;;14.60;99.90;;;14.98;100.00;97587.78;10344401;28;20233;-67
2023/10/14 13:09:49;;;;;;;2.40;2.00;;;14.40;99.90;;;14.73;100.00;97601.47;10342816;28;20568;-67
2023/10/14 13:14:53;;;;;;;2.25;2.15;;;14.20;99.90;;;14.78;100.00;97603.38;10342621;28;20218;-67
2023/10/14 13:19:56;;;;;;;2.55;2.40;;;14.20;99.90;;;14.91;100.00;97602.13;10350612;28;20219;-67
2023/10/14 13:25:01;;;;;;;5.57;4.95;;;14.30;99.90;;;14.85;100.00;97618.22;10344788;28;20241;-67
2023/10/14 13:30:10;;;;;;;2.95;2.75;;;14.20;99.90;;;14.83;100.00;97609.56;10343789;28;20332;-66
2023/10/14 13:35:15;;;;;;;3.72;3.42;;;14.10;99.90;;;14.75;100.00;97608.41;10338979;28;20234;-66
2023/10/14 13:40:22;;;;;;;3.22;2.92;;;14.10;99.90;;;14.64;100.00;97625.16;10347530;28;20339;-67
2023/10/14 13:45:43;;;;;;;2.90;2.65;;;14.00;99.90;;;14.70;100.00;97617.66;10342870;28;20238;-67
2023/10/14 13:50:46;;;;;;;4.00;3.55;;;14.10;99.90;;;15.02;100.00;97599.91;10344847;28;20232;-67
2023/10/14 13:55:54;;;;;;;10.40;9.50;;;14.20;99.90;;;15.02;100.00;97599.91;10345872;28;20245;-66
2023/10/14 14:01:01;;;;;;;6.05;5.57;;;14.30;99.90;;;15.04;100.00;97606.88;10346831;28;20741;-68
2023/10/14 14:06:08;;;;;;;5.97;5.57;;;14.40;99.90;;;15.24;100.00;97607.56;10345131;28;20348;-68
2023/10/14 14:11:11;;;;;;;3.88;3.58;;;14.50;99.90;;;15.17;100.00;97618.50;10351576;28;20329;-68
2023/10/14 14:16:18;;;;;;;3.28;2.97;;;14.40;99.90;;;15.12;100.00;97635.47;10352822;28;20241;-68
2023/10/14 14:21:21;;;;;;;3.33;3.03;;;14.40;99.90;;;14.90;100.00;97640.66;10355531;28;20241;-69
2023/10/14 14:26:24;;;;;;;3.47;3.17;;;14.20;99.90;;;14.75;100.00;97651.28;10353264;28;20804;-68
2023/10/14 14:31:30;;;;;;;3.00;2.80;;;14.20;99.90;;;14.64;100.00;97662.03;10358152;28;20230;-68
2023/10/14 14:36:34;;;;;;;2.70;2.47;;;14.10;99.90;;;14.72;100.00;97669.19;10348457;28;20313;-68
2023/10/14 14:41:37;;;;;;;2.53;2.35;;;14.10;99.90;;;14.60;100.00;97679.88;10351160;28;20241;-68
2023/10/14 14:46:41;;;;;;;2.65;2.45;;;14.00;99.90;;;14.60;100.00;97664.44;10352434;28;20222;-71
2023/10/14 14:51:45;;;;;;;2.90;2.70;;;14.00;99.90;;;14.67;100.00;97689.56;10350771;28;20304;-67
2023/10/14 14:56:48;;;;;;;2.95;2.75;;;14.00;99.90;;;14.49;100.00;97696.56;10359327;28;20225;-67
2023/10/14 15:01:52;;;;;;;2.65;2.45;;;13.90;99.90;;;14.45;100.00;97689.53;10346622;28;20234;-67
2023/10/14 15:06:56;;;;;;;2.90;2.70;;;13.90;99.90;;;14.39;100.00;97698.78;10352638;28;20236;-68
2023/10/14 15:11:59;;;;;;;3.08;2.60;;;13.80;99.90;;;14.38;100.00;97716.69;10353625;28;20226;-68
2023/10/14 15:17:04;;;;;;;4.05;3.17;;;13.80;99.90;;;14.33;100.00;97720.78;10356744;28;20785;-66
2023/10/14 15:22:07;;;;;;;4.60;3.28;;;13.70;99.90;;;14.22;100.00;97738.34;10351712;28;20276;-68
2023/10/14 15:27:10;;;;;;;3.42;3.00;;;13.60;99.90;;;14.21;100.00;97749.44;10353869;28;20230;-68
2023/10/14 15:32:15;;;;;;;3.35;2.65;;;13.60;99.90;;;14.11;100.00;97766.19;10356358;28;20233;-67
2023/10/14 15:37:19;;;;;;;2.47;2.28;;;13.50;99.90;;;14.19;100.00;97771.63;10355677;28;20228;-67
2023/10/14 15:42:22;;;;;;;2.60;2.40;;;13.50;99.90;;;13.96;100.00;97779.28;10349863;28;20253;-71
2023/10/14 15:47:26;;;;;;;4.28;2.60;;;13.30;99.90;;;13.92;100.00;97782.50;10345552;28;20234;-68
2023/10/14 15:52:30;;;;;;;26.05;23.17;;;13.20;99.90;;;13.94;100.00;97786.03;10349466;28;20223;-68
2023/10/14 15:57:33;;;;;;;7.90;6.93;;;13.20;99.90;;;13.61;100.00;97802.56;10350508;28;20702;-67
2023/10/14 16:02:37;;;;;;;4.53;4.05;;;13.00;99.90;;;13.46;100.00;97816.47;10348903;28;20231;-65
2023/10/14 16:07:40;;;;;;;5.75;3.63;;;12.90;99.90;;;13.33;100.00;97814.16;10353130;28;20272;-66
2023/10/14 16:12:44;;;;;;;6.05;4.00;;;12.70;99.90;;;13.42;100.00;97819.72;10351139;28;20701;-66
2023/10/14 16:17:51;;;;;;;5.78;3.72;;;12.70;99.90;;;13.23;100.00;97819.66;10349551;28;20226;-68
2023/10/14 16:22:58;;;;;;;5.38;4.32;;;12.60;99.90;;;13.11;100.00;97837.94;10350627;28;20224;-66
2023/10/14 16:28:01;;;;;;;16.23;9.65;;;12.50;99.90;;;12.99;100.00;97847.59;10347796;28;20230;-66
2023/10/14 16:33:06;;;;;;;11.90;5.90;;;12.40;99.90;;;12.96;100.00;97866.31;10335796;28;20226;-66
2023/10/14 16:38:10;;;;;;;6.90;4.53;;;12.30;99.90;;;12.91;100.00;97884.88;10342716;28;20326;-67
2023/10/14 16:43:13;;;;;;;8.48;6.90;;;12.30;99.90;;;12.78;100.00;97891.94;10348523;28;20230;-67
2023/10/14 16:48:17;;;;;;;7.90;5.95;;;12.20;99.90;;;12.74;100.00;97896.88;10345773;28;20278;-68
2023/10/14 16:53:21;;;;;;;7.93;5.53;;;12.10;99.90;;;12.66;100.00;97913.56;10347567;28;20229;-66
2023/10/14 16:58:24;;;;;;;17.85;16.15;;;12.00;99.90;;;12.55;100.00;97926.72;10351314;28;20589;-68
2023/10/14 17:03:32;;;;;;;15.15;13.57;;;11.90;99.90;;;12.43;100.00;97936.34;10347342;28;20310;-67
2023/10/14 17:08:35;;;;;;;25.83;22.63;;;11.80;99.90;;;12.45;100.00;97945.00;10343592;28;20222;-65
2023/10/14 17:13:40;;;;;;;119.22;61.38;;;11.80;99.90;;;12.23;100.00;97947.28;10348686;28;20223;-67
2023/10/14 17:18:46;;;;;;;13.82;10.50;;;11.60;99.90;;;12.23;100.00;97963.53;10350202;28;20226;-65
2023/10/14 17:23:51;;;;;;;33.28;15.00;;;11.60;99.90;;;12.16;100.00;97962.34;10347899;28;20241;-66
2023/10/14 17:28:54;;;;;;;105.45;36.65;;;11.50;99.90;;;12.02;100.00;97964.94;10345918;28;20304;-65
2023/10/14 17:33:59;;;;;;;34.92;16.67;;;11.30;99.90;;;11.87;100.00;97970.13;10346386;28;20246;-66
2023/10/14 17:39:05;;;;;;;40.65;20.90;;;11.20;99.90;;;11.79;100.00;97984.16;10339672;28;20316;-66
2023/10/14 17:44:08;;;;;;;47.83;23.33;;;11.10;99.90;;;11.64;100.00;97990.22;10340908;28;20242;-65
2023/10/14 17:49:14;;;;;;;9.23;5.78;;;11.00;99.90;;;11.53;100.00;98001.53;10339090;28;22259;-65
2023/10/14 17:54:17;;;;;;;6.75;5.07;;;10.80;99.90;;;11.36;100.00;98009.97;10340854;28;20226;-65
2023/10/14 17:59:20;;;;;;;12.75;8.00;;;10.70;99.90;;;11.30;100.00;98022.41;10354789;28;20249;-65
2023/10/14 18:04:24;;;;;;;52.20;25.50;;;10.60;99.90;;;11.22;100.00;98035.66;10357099;28;20253;-65
2023/10/14 18:09:28;;;;;;;20.27;12.82;;;10.60;99.90;;;11.21;100.00;98033.88;10344117;28;20223;-64
2023/10/14 18:14:31;;;;;;;11.07;6.13;;;10.60;99.90;;;11.15;100.00;98048.88;10351756;28;20237;-64
2023/10/14 18:19:36;;;;;;;85.07;41.15;;;10.50;99.90;;;11.08;100.00;98053.56;10345554;28;20736;-67
2023/10/14 18:24:39;;;;;;;20.90;13.45;;;10.40;99.90;;;10.99;100.00;98066.72;10335920;28;20244;-64
2023/10/14 18:29:42;;;;;;;23.85;15.23;;;10.30;99.90;;;10.87;100.00;98077.06;10344803;28;20230;-65
2023/10/14 18:34:46;;;;;;;9.68;7.80;;;10.30;99.90;;;10.88;100.00;98072.88;10345561;28;20777;-66
2023/10/14 18:39:50;;;;;;;9.30;6.68;;;10.20;99.90;;;10.80;100.00;98088.63;10345892;28;20241;-66
2023/10/14 18:44:53;;;;;;;9.70;6.35;;;10.10;99.90;;;10.74;100.00;98095.94;10346718;28;20744;-64
2023/10/14 18:49:57;;;;;;;5.78;4.88;;;10.10;99.90;;;10.61;100.00;98095.97;10349008;28;20738;-62
2023/10/14 18:55:00;;;;;;;10.60;7.67;;;9.90;99.90;;;10.32;100.00;98096.75;10347588;28;20748;-64
2023/10/14 19:00:04;;;;;;;10.60;8.40;;;9.70;99.90;;;10.28;100.00;98085.47;10350115;28;20222;-64
2023/10/14 19:05:09;;;;;;;9.10;7.70;;;9.70;99.90;;;10.14;100.00;98099.91;10353648;28;20232;-64
2023/10/14 19:10:14;;;;;;;7.47;5.00;;;9.50;99.90;;;10.02;100.00;98113.59;10351361;28;20256;-63
2023/10/14 19:15:19;;;;;;;7.23;6.23;;;9.50;99.90;;;9.99;100.00;98108.28;10339977;28;20246;-63
2023/10/14 19:20:24;;;;;;;8.33;5.70;;;9.40;99.90;;;10.00;100.00;98105.81;10324952;28;20289;-67
2023/10/14 19:25:27;;;;;;;7.95;5.28;;;9.40;99.90;;;10.04;100.00;98095.00;10351409;28;20253;-64
2023/10/14 19:30:32;;;;;;;7.13;6.43;;;9.40;99.90;;;10.07;100.00;98107.06;10347012;28;20233;-64
2023/10/14 19:35:40;;;;;;;11.93;9.30;;;9.50;99.90;;;10.15;100.00;98118.66;10352931;28;20230;-65
2023/10/14 19:40:43;;;;;;;12.43;8.55;;;9.50;99.90;;;10.32;100.00;98124.84;10351419;28;20233;-64
2023/10/14 19:45:47;;;;;;;11.60;8.85;;;9.60;99.90;;;10.26;100.00;98137.22;10344437;28;20230;-64
2023/10/14 19:50:53;;;;;;;7.10;6.40;;;9.60;99.90;;;10.23;100.00;98144.69;10348686;28;20229;-64
2023/10/14 19:55:56;;;;;;;7.10;6.33;;;9.60;99.90;;;10.15;100.00;98147.63;10350690;28;20233;-64
2023/10/14 20:00:59;;;;;;;6.47;5.87;;;9.50;99.90;;;10.28;100.00;98154.44;10342242;28;20226;-64
2023/10/14 20:06:05;;;;;;;7.00;6.30;;;9.60;99.90;;;10.33;100.00;98160.72;10344116;28;20226;-66
2023/10/14 20:11:08;;;;;;;8.10;7.27;;;9.70;99.90;;;10.43;100.00;98148.53;10351413;28;20226;-65
2023/10/14 20:16:11;;;;;;;10.03;7.37;;;9.70;99.90;;;10.41;100.00;98150.97;10345301;28;20240;-64
2023/10/14 20:21:16;;;;;;;10.23;7.07;;;9.70;99.90;;;10.36;100.00;98148.16;10352055;28;20226;-65
2023/10/14 20:26:19;;;;;;;7.10;6.40;;;9.70;99.90;;;10.42;100.00;98149.31;10348736;28;20227;-65
2023/10/14 20:31:23;;;;;;;7.60;6.80;;;9.80;99.90;;;10.47;100.00;98155.56;10350402;28;20249;-63
2023/10/14 20:36:27;;;;;;;8.13;6.57;;;9.80;99.90;;;10.51;100.00;98147.34;10349932;28;20674;-65
2023/10/14 20:41:30;;;;;;;7.03;6.17;;;9.90;99.90;;;10.44;100.00;98156.28;10349995;28;20249;-65
2023/10/14 20:46:35;;;;;;;6.75;6.25;;;9.80;99.90;;;10.40;100.00;98163.66;10348436;28;20227;-66
2023/10/14 20:51:40;;;;;;;6.90;5.53;;;9.70;99.90;;;10.47;100.00;98161.59;10350738;28;20848;-65
2023/10/14 20:56:43;;;;;;;5.28;4.72;;;9.80;99.90;;;10.36;100.00;98155.81;10350033;28;20749;-66
2023/10/14 21:01:46;;;;;;;6.00;4.90;;;9.70;99.90;;;10.23;100.00;98166.00;10350421;28;20566;-64
2023/10/14 21:06:51;;;;;;;4.97;4.50;;;9.50;99.90;;;9.88;100.00;98167.19;10347701;28;20353;-64
2023/10/14 21:11:56;;;;;;;5.87;4.50;;;9.20;99.90;;;9.82;100.00;98171.03;10349085;28;20304;-64
2023/10/14 21:16:59;;;;;;;5.10;4.60;;;9.10;99.90;;;9.57;100.00;98178.75;10346597;28;20237;-64